Detall de PIREP

Printer-friendly versionPDF version

[2016/10/16 08:51:00]
Flight IATA:CT0002
Pilot Number:012
Company ICAO:CAT
Aircraft Type:DC3/A
PAX:19
Aircraft Registration:PAX
Departing Airport: LFMD
Destination Airport: LFMT
Alternate Airport:LFMP
Online: VATSIM
Route:VFR COSTLINE
Flight Level:A3000
No Slew and time accel
No pause
Crash detect
Detect pilot in Cockpit between each 30 and 45 minutes
08:51 Zero fuel Weight: 20139 Lbs, Fuel Weight: 1307 Lbs
08:51 VATSIM:LFMD 160830Z AUTO 01003KT 330V040 CAVOK 17/12 Q1022 NOSIG
08:51 VATSIM:LFMT 160830Z 05009KT 9999 BKN018 16/11 Q1020 NOSIG
08:51 VIP TRANSPORT
08:57 Parking Brakes off
09:00 Take-off
09:00 Take off Weight: 21424 Lbs
09:00 Wind: 358º @ 003 Knots Heading: 352º
09:00 POS N43º 32´ 53´´ E006º 57´ 01´´
09:00 Gear Up: 098 Knots
09:15 Wind:001º@002 Knots Heading: 237º Ground Speed: 154 Knots Altitude 3001 ft
09:30 Wind:050º@005 Knots Heading: 291º Ground Speed: 157 Knots Altitude 2988 ft
09:45 Wind:059º@008 Knots Heading: 027º Ground Speed: 149 Knots Altitude 3067 ft
09:50 Flaps:1 at 136 Knots
09:50 Flaps:2 at 116 Knots
09:51 Gear Down: 94 Knots
09:51 Flaps:3 at 93 Knots
09:55 TouchDown:Rate -128 ft/min Speed: 66 Knots
09:56 Flaps:2 at 49 Knots
09:56 Flaps:0 at 48 Knots
09:56 VATSIM:LFMT 160930Z 04007KT 9999 BKN013 BKN018 16/12 Q1020 NOSIG
09:56 Land
09:56 Wind:046º@007 Knots
09:56 Heading: 136º
09:56 Flight Duration: 00:56
09:56 Landing Weight: 20833 Lbs
09:56 POS N43º 26´ 08´´ E005º 12´ 59´´
09:59 Parking brakes on
09:59 Block to Block Duration: 01:02
09:59 Final Fuel: 685 Lbls
09:59 Spent Fuel: 621 Lbls
09:59 Flight Length: 135 NM
09:59 TOD Land Length: 135 NM

Exportar CSV

Powered by Drupal - Modified by Danger4k